Accueil
METAR-TAF:

METAR-TAF

Aéroports :

Longyearbyen, Norvège

Aéroport de Longyearbyen

latitude: 78-15N, longitude: 015-28E, altitude: 2 m

Observation

Le bulletin a été fait il y a 2 heures et 29 minutes, à 14:50 UTC
Vent 17 kt de sud-est
Température -5°C
Humidité 73%
Pression 1029 hPa
Visibilité 10 km ou plus
Quelques nuages à une hauteur de 200 ft

METAR: ENSB 201450Z 14017KT 9999 FEW002 M05/M09 Q1029 RMK WIND 1400FT 13015KT

Heure: 18:19 (17:19 UTC)

Prévision

Prévision valable du 20 à 12 UTC au 21 à 12 UTC
Vent 12 kt de est/sud-est
Visibilité 10 km ou plus
Quelques nuages à une hauteur de 1500 ft
Nuages épars à une hauteur de 2000 ft

TAF: ENSB 2012/2112 12012KT 9999 FEW015 SCT020

Observations et prévisions météorologiques de plus de 4000 aéroports (messages METAR et TAF).

Les stations disponibles sont représentées par des disques jaunes et rouges sur la carte.

Passer la souris dessus pour voir le nom de la station.

Cliquer dessus pour voir les observations et prévisions météorologiques.

Pour changer de carte: cliquez sur les boutons verts avec une croix noire pour zoomer, sur le bouton vert avec un tiret pour effectuer un zoom arrière, ou sur les flèches vertes pour les cartes adjacentes.


METAR-TAF: